sensor_id;sensor_type;location;lat;lon;timestamp;P1;durP1;ratioP1;P2;durP2;ratioP2
1206;SDS011;593;53.184;8.216;2022-08-18T00:00:46;13.13;;;10.90;;
1206;SDS011;593;53.184;8.216;2022-08-18T00:03:11;11.30;;;10.03;;
1206;SDS011;593;53.184;8.216;2022-08-18T00:05:37;12.97;;;10.57;;
1206;SDS011;593;53.184;8.216;2022-08-18T00:08:02;12.33;;;11.03;;
1206;SDS011;593;53.184;8.216;2022-08-18T00:10:28;11.50;;;10.30;;
1206;SDS011;593;53.184;8.216;2022-08-18T00:12:54;14.77;;;10.20;;
1206;SDS011;593;53.184;8.216;2022-08-18T00:15:19;10.50;;;9.50;;
1206;SDS011;593;53.184;8.216;2022-08-18T00:17:45;10.53;;;9.33;;
1206;SDS011;593;53.184;8.216;2022-08-18T00:20:12;13.17;;;9.60;;
1206;SDS011;593;53.184;8.216;2022-08-18T00:22:40;11.07;;;9.03;;
1206;SDS011;593;53.184;8.216;2022-08-18T00:25:06;10.20;;;9.30;;
1206;SDS011;593;53.184;8.216;2022-08-18T00:27:34;11.03;;;8.73;;
1206;SDS011;593;53.184;8.216;2022-08-18T00:30:01;11.17;;;9.30;;
1206;SDS011;593;53.184;8.216;2022-08-18T00:32:37;11.43;;;8.40;;
1206;SDS011;593;53.184;8.216;2022-08-18T00:35:07;10.10;;;8.70;;
1206;SDS011;593;53.184;8.216;2022-08-18T00:37:37;15.17;;;8.60;;
1206;SDS011;593;53.184;8.216;2022-08-18T00:40:04;12.57;;;8.80;;
1206;SDS011;593;53.184;8.216;2022-08-18T00:42:31;8.70;;;7.80;;
1206;SDS011;593;53.184;8.216;2022-08-18T00:44:59;7.50;;;6.83;;
1206;SDS011;593;53.184;8.216;2022-08-18T00:47:26;12.93;;;8.77;;
1206;SDS011;593;53.184;8.216;2022-08-18T00:49:53;8.80;;;7.90;;
1206;SDS011;593;53.184;8.216;2022-08-18T00:52:19;10.23;;;7.83;;
1206;SDS011;593;53.184;8.216;2022-08-18T00:54:46;11.70;;;8.33;;
1206;SDS011;593;53.184;8.216;2022-08-18T00:57:12;9.03;;;7.80;;
1206;SDS011;593;53.184;8.216;2022-08-18T00:59:47;9.43;;;8.27;;
1206;SDS011;593;53.184;8.216;2022-08-18T01:02:27;13.97;;;7.80;;
1206;SDS011;593;53.184;8.216;2022-08-18T01:05:05;11.80;;;8.33;;
1206;SDS011;593;53.184;8.216;2022-08-18T01:07:39;12.50;;;8.90;;
1206;SDS011;593;53.184;8.216;2022-08-18T01:10:12;8.60;;;7.40;;
1206;SDS011;593;53.184;8.216;2022-08-18T01:12:44;9.70;;;7.83;;
1206;SDS011;593;53.184;8.216;2022-08-18T01:15:11;10.53;;;7.97;;
1206;SDS011;593;53.184;8.216;2022-08-18T01:17:39;7.70;;;6.90;;
1206;SDS011;593;53.184;8.216;2022-08-18T01:20:26;7.80;;;6.63;;
1206;SDS011;593;53.184;8.216;2022-08-18T01:23:16;10.07;;;8.07;;
1206;SDS011;593;53.184;8.216;2022-08-18T01:25:44;9.70;;;7.40;;
1206;SDS011;593;53.184;8.216;2022-08-18T01:31:07;8.80;;;7.90;;
1206;SDS011;593;53.184;8.216;2022-08-18T01:33:36;11.60;;;6.90;;
1206;SDS011;593;53.184;8.216;2022-08-18T01:38:38;9.20;;;8.30;;
1206;SDS011;593;53.184;8.216;2022-08-18T01:41:04;12.10;;;7.37;;
1206;SDS011;593;53.184;8.216;2022-08-18T01:43:31;7.53;;;6.80;;
1206;SDS011;593;53.184;8.216;2022-08-18T01:45:58;9.10;;;8.20;;
1206;SDS011;593;53.184;8.216;2022-08-18T01:48:25;10.43;;;9.33;;
1206;SDS011;593;53.184;8.216;2022-08-18T01:50:51;13.70;;;8.10;;
1206;SDS011;593;53.184;8.216;2022-08-18T01:53:18;9.60;;;7.97;;
1206;SDS011;593;53.184;8.216;2022-08-18T01:55:43;6.83;;;6.13;;
1206;SDS011;593;53.184;8.216;2022-08-18T01:58:09;13.07;;;7.10;;
1206;SDS011;593;53.184;8.216;2022-08-18T02:00:36;11.43;;;8.60;;
1206;SDS011;593;53.184;8.216;2022-08-18T02:03:02;8.17;;;6.87;;
1206;SDS011;593;53.184;8.216;2022-08-18T02:05:34;9.87;;;7.87;;
1206;SDS011;593;53.184;8.216;2022-08-18T02:08:02;9.47;;;8.53;;
1206;SDS011;593;53.184;8.216;2022-08-18T02:10:29;13.80;;;8.10;;
1206;SDS011;593;53.184;8.216;2022-08-18T02:12:55;11.53;;;7.30;;
1206;SDS011;593;53.184;8.216;2022-08-18T02:15:20;14.67;;;8.90;;
1206;SDS011;593;53.184;8.216;2022-08-18T02:17:46;9.53;;;7.50;;
1206;SDS011;593;53.184;8.216;2022-08-18T02:20:13;7.33;;;6.63;;
1206;SDS011;593;53.184;8.216;2022-08-18T02:22:42;9.40;;;7.77;;
1206;SDS011;593;53.184;8.216;2022-08-18T02:25:07;8.70;;;7.17;;
1206;SDS011;593;53.184;8.216;2022-08-18T02:27:33;9.03;;;7.20;;
1206;SDS011;593;53.184;8.216;2022-08-18T02:30:00;8.80;;;7.93;;
1206;SDS011;593;53.184;8.216;2022-08-18T02:32:28;8.97;;;7.00;;
1206;SDS011;593;53.184;8.216;2022-08-18T02:34:53;9.80;;;7.93;;
1206;SDS011;593;53.184;8.216;2022-08-18T02:37:19;11.10;;;7.60;;
1206;SDS011;593;53.184;8.216;2022-08-18T02:39:45;12.27;;;7.97;;
1206;SDS011;593;53.184;8.216;2022-08-18T02:42:10;8.80;;;7.87;;
1206;SDS011;593;53.184;8.216;2022-08-18T02:44:38;11.20;;;7.40;;
1206;SDS011;593;53.184;8.216;2022-08-18T02:47:04;7.70;;;7.00;;
1206;SDS011;593;53.184;8.216;2022-08-18T02:49:29;9.77;;;7.50;;
1206;SDS011;593;53.184;8.216;2022-08-18T02:51:55;9.87;;;7.60;;
1206;SDS011;593;53.184;8.216;2022-08-18T02:54:21;9.87;;;7.83;;
1206;SDS011;593;53.184;8.216;2022-08-18T02:56:47;8.47;;;7.57;;
1206;SDS011;593;53.184;8.216;2022-08-18T02:59:19;8.30;;;7.53;;
1206;SDS011;593;53.184;8.216;2022-08-18T03:01:48;8.77;;;7.60;;
1206;SDS011;593;53.184;8.216;2022-08-18T03:04:17;11.27;;;7.40;;
1206;SDS011;593;53.184;8.216;2022-08-18T03:06:47;10.40;;;7.10;;
1206;SDS011;593;53.184;8.216;2022-08-18T03:09:14;9.20;;;6.60;;
1206;SDS011;593;53.184;8.216;2022-08-18T03:11:41;10.40;;;6.60;;
1206;SDS011;593;53.184;8.216;2022-08-18T03:14:07;8.67;;;7.73;;
1206;SDS011;593;53.184;8.216;2022-08-18T03:16:33;7.03;;;6.17;;
1206;SDS011;593;53.184;8.216;2022-08-18T03:19:02;10.10;;;7.67;;
1206;SDS011;593;53.184;8.216;2022-08-18T03:21:29;17.67;;;9.03;;
1206;SDS011;593;53.184;8.216;2022-08-18T03:23:55;10.60;;;8.73;;
1206;SDS011;593;53.184;8.216;2022-08-18T03:26:22;16.17;;;9.00;;
1206;SDS011;593;53.184;8.216;2022-08-18T03:28:49;13.10;;;9.43;;
1206;SDS011;593;53.184;8.216;2022-08-18T03:31:18;17.73;;;11.10;;
1206;SDS011;593;53.184;8.216;2022-08-18T03:33:46;17.93;;;11.97;;
1206;SDS011;593;53.184;8.216;2022-08-18T03:36:16;12.90;;;11.27;;
1206;SDS011;593;53.184;8.216;2022-08-18T03:38:45;20.93;;;13.10;;
1206;SDS011;593;53.184;8.216;2022-08-18T03:41:12;15.60;;;12.20;;
1206;SDS011;593;53.184;8.216;2022-08-18T03:43:38;24.90;;;13.50;;
1206;SDS011;593;53.184;8.216;2022-08-18T03:46:05;18.43;;;11.93;;
1206;SDS011;593;53.184;8.216;2022-08-18T03:48:33;17.93;;;12.27;;
1206;SDS011;593;53.184;8.216;2022-08-18T03:51:03;15.20;;;11.40;;
1206;SDS011;593;53.184;8.216;2022-08-18T03:53:30;16.80;;;12.47;;
1206;SDS011;593;53.184;8.216;2022-08-18T03:55:58;14.80;;;11.37;;
1206;SDS011;593;53.184;8.216;2022-08-18T03:58:24;22.93;;;12.77;;
1206;SDS011;593;53.184;8.216;2022-08-18T04:00:49;20.87;;;11.80;;
1206;SDS011;593;53.184;8.216;2022-08-18T04:03:15;19.70;;;12.07;;
1206;SDS011;593;53.184;8.216;2022-08-18T04:05:40;17.30;;;13.10;;
1206;SDS011;593;53.184;8.216;2022-08-18T04:08:05;18.67;;;12.00;;
1206;SDS011;593;53.184;8.216;2022-08-18T04:10:31;18.90;;;13.57;;
1206;SDS011;593;53.184;8.216;2022-08-18T04:12:57;18.30;;;12.40;;
1206;SDS011;593;53.184;8.216;2022-08-18T04:15:23;13.47;;;11.93;;
1206;SDS011;593;53.184;8.216;2022-08-18T04:17:48;16.23;;;11.50;;
1206;SDS011;593;53.184;8.216;2022-08-18T04:20:13;16.27;;;11.77;;
1206;SDS011;593;53.184;8.216;2022-08-18T04:22:40;14.30;;;10.93;;
1206;SDS011;593;53.184;8.216;2022-08-18T04:25:06;19.57;;;10.80;;
1206;SDS011;593;53.184;8.216;2022-08-18T04:27:33;14.77;;;10.70;;
1206;SDS011;593;53.184;8.216;2022-08-18T04:30:00;10.67;;;9.33;;
1206;SDS011;593;53.184;8.216;2022-08-18T04:32:25;15.60;;;10.80;;
1206;SDS011;593;53.184;8.216;2022-08-18T04:34:51;12.50;;;9.93;;
1206;SDS011;593;53.184;8.216;2022-08-18T04:37:16;15.80;;;10.87;;
1206;SDS011;593;53.184;8.216;2022-08-18T04:39:42;16.63;;;11.10;;
1206;SDS011;593;53.184;8.216;2022-08-18T04:42:10;17.13;;;10.80;;
1206;SDS011;593;53.184;8.216;2022-08-18T04:44:36;14.53;;;11.37;;
1206;SDS011;593;53.184;8.216;2022-08-18T04:47:03;14.83;;;9.70;;
1206;SDS011;593;53.184;8.216;2022-08-18T04:49:31;19.83;;;9.97;;
1206;SDS011;593;53.184;8.216;2022-08-18T04:52:02;14.00;;;9.57;;
1206;SDS011;593;53.184;8.216;2022-08-18T04:54:59;17.67;;;10.20;;
1206;SDS011;593;53.184;8.216;2022-08-18T04:57:25;10.20;;;9.03;;
1206;SDS011;593;53.184;8.216;2022-08-18T04:59:53;13.87;;;9.47;;
1206;SDS011;593;53.184;8.216;2022-08-18T05:02:28;10.67;;;9.17;;
1206;SDS011;593;53.184;8.216;2022-08-18T05:05:03;12.03;;;9.83;;
1206;SDS011;593;53.184;8.216;2022-08-18T05:07:32;11.07;;;9.07;;
1206;SDS011;593;53.184;8.216;2022-08-18T05:10:02;16.00;;;8.77;;
1206;SDS011;593;53.184;8.216;2022-08-18T05:12:31;9.23;;;7.87;;
1206;SDS011;593;53.184;8.216;2022-08-18T05:15:01;14.23;;;7.67;;
1206;SDS011;593;53.184;8.216;2022-08-18T05:17:31;12.33;;;8.80;;
1206;SDS011;593;53.184;8.216;2022-08-18T05:20:10;13.13;;;7.83;;
1206;SDS011;593;53.184;8.216;2022-08-18T05:22:44;8.07;;;6.87;;
1206;SDS011;593;53.184;8.216;2022-08-18T05:25:19;7.97;;;7.17;;
1206;SDS011;593;53.184;8.216;2022-08-18T05:27:45;11.13;;;8.00;;
1206;SDS011;593;53.184;8.216;2022-08-18T05:30:14;13.13;;;9.80;;
1206;SDS011;593;53.184;8.216;2022-08-18T05:32:41;16.67;;;8.70;;
1206;SDS011;593;53.184;8.216;2022-08-18T05:35:22;14.63;;;9.73;;
1206;SDS011;593;53.184;8.216;2022-08-18T05:40:41;16.63;;;10.33;;
1206;SDS011;593;53.184;8.216;2022-08-18T05:43:20;11.67;;;8.87;;
1206;SDS011;593;53.184;8.216;2022-08-18T05:45:50;10.70;;;8.60;;
1206;SDS011;593;53.184;8.216;2022-08-18T05:48:17;12.80;;;9.57;;
1206;SDS011;593;53.184;8.216;2022-08-18T05:50:45;14.23;;;10.37;;
1206;SDS011;593;53.184;8.216;2022-08-18T05:53:24;13.30;;;9.53;;
1206;SDS011;593;53.184;8.216;2022-08-18T05:56:10;15.37;;;10.60;;
1206;SDS011;593;53.184;8.216;2022-08-18T05:59:01;12.90;;;10.00;;
1206;SDS011;593;53.184;8.216;2022-08-18T06:01:31;15.70;;;11.00;;
1206;SDS011;593;53.184;8.216;2022-08-18T06:07:14;21.87;;;13.10;;
1206;SDS011;593;53.184;8.216;2022-08-18T06:09:46;17.50;;;13.10;;
1206;SDS011;593;53.184;8.216;2022-08-18T06:29:43;25.07;;;13.13;;
1206;SDS011;593;53.184;8.216;2022-08-18T06:40:40;24.43;;;11.73;;
1206;SDS011;593;53.184;8.216;2022-08-18T06:43:08;17.83;;;12.63;;
1206;SDS011;593;53.184;8.216;2022-08-18T06:45:45;20.33;;;11.77;;
1206;SDS011;593;53.184;8.216;2022-08-18T06:48:31;17.00;;;10.90;;
1206;SDS011;593;53.184;8.216;2022-08-18T06:51:17;18.60;;;11.87;;
1206;SDS011;593;53.184;8.216;2022-08-18T06:53:58;17.93;;;11.87;;
1206;SDS011;593;53.184;8.216;2022-08-18T07:02:15;14.67;;;11.20;;
1206;SDS011;593;53.184;8.216;2022-08-18T07:06:03;16.33;;;10.73;;
1206;SDS011;593;53.184;8.216;2022-08-18T07:08:33;14.03;;;10.70;;
1206;SDS011;593;53.184;8.216;2022-08-18T07:13:53;12.13;;;9.10;;
1206;SDS011;593;53.184;8.216;2022-08-18T07:19:30;13.50;;;9.00;;
1206;SDS011;593;53.184;8.216;2022-08-18T07:22:59;14.50;;;9.37;;
1206;SDS011;593;53.184;8.216;2022-08-18T07:25:45;13.20;;;10.37;;
1206;SDS011;593;53.184;8.216;2022-08-18T07:28:47;13.60;;;11.50;;
1206;SDS011;593;53.184;8.216;2022-08-18T07:31:45;13.57;;;9.87;;
1206;SDS011;593;53.184;8.216;2022-08-18T07:34:48;14.33;;;8.80;;
1206;SDS011;593;53.184;8.216;2022-08-18T07:48:49;8.90;;;7.47;;
1206;SDS011;593;53.184;8.216;2022-08-18T07:51:23;8.93;;;7.93;;
1206;SDS011;593;53.184;8.216;2022-08-18T08:00:22;11.67;;;8.43;;
1206;SDS011;593;53.184;8.216;2022-08-18T08:06:23;11.23;;;7.70;;
1206;SDS011;593;53.184;8.216;2022-08-18T08:09:11;9.17;;;8.20;;
1206;SDS011;593;53.184;8.216;2022-08-18T08:12:52;10.63;;;7.93;;
1206;SDS011;593;53.184;8.216;2022-08-18T08:15:30;10.10;;;6.93;;
1206;SDS011;593;53.184;8.216;2022-08-18T08:23:39;11.60;;;7.87;;
1206;SDS011;593;53.184;8.216;2022-08-18T08:32:01;7.33;;;6.63;;
1206;SDS011;593;53.184;8.216;2022-08-18T08:34:34;8.43;;;7.73;;
1206;SDS011;593;53.184;8.216;2022-08-18T08:37:12;11.30;;;8.07;;
1206;SDS011;593;53.184;8.216;2022-08-18T08:39:45;7.50;;;6.83;;
1206;SDS011;593;53.184;8.216;2022-08-18T08:45:33;10.23;;;8.07;;
1206;SDS011;593;53.184;8.216;2022-08-18T08:48:13;7.60;;;7.00;;
1206;SDS011;593;53.184;8.216;2022-08-18T08:50:45;9.10;;;7.70;;
1206;SDS011;593;53.184;8.216;2022-08-18T08:53:19;7.90;;;7.13;;
1206;SDS011;593;53.184;8.216;2022-08-18T08:55:52;9.03;;;8.13;;
1206;SDS011;593;53.184;8.216;2022-08-18T08:58:29;7.33;;;6.63;;
1206;SDS011;593;53.184;8.216;2022-08-18T09:01:01;10.27;;;7.23;;
1206;SDS011;593;53.184;8.216;2022-08-18T09:03:38;7.20;;;6.30;;
1206;SDS011;593;53.184;8.216;2022-08-18T09:19:59;8.67;;;6.80;;
1206;SDS011;593;53.184;8.216;2022-08-18T09:22:45;9.87;;;7.00;;
1206;SDS011;593;53.184;8.216;2022-08-18T09:42:15;5.17;;;4.77;;
1206;SDS011;593;53.184;8.216;2022-08-18T09:52:57;5.60;;;4.33;;
1206;SDS011;593;53.184;8.216;2022-08-18T09:55:09;7.63;;;4.70;;
1206;SDS011;593;53.184;8.216;2022-08-18T10:03:43;5.97;;;5.47;;
1206;SDS011;593;53.184;8.216;2022-08-18T10:06:37;4.87;;;4.57;;
1206;SDS011;593;53.184;8.216;2022-08-18T10:09:15;5.03;;;4.60;;
1206;SDS011;593;53.184;8.216;2022-08-18T10:11:57;7.70;;;4.77;;
1206;SDS011;593;53.184;8.216;2022-08-18T10:14:32;4.60;;;4.20;;
1206;SDS011;593;53.184;8.216;2022-08-18T10:22:59;5.43;;;4.13;;
1206;SDS011;593;53.184;8.216;2022-08-18T10:25:41;4.37;;;3.57;;
1206;SDS011;593;53.184;8.216;2022-08-18T10:28:52;4.20;;;3.13;;
1206;SDS011;593;53.184;8.216;2022-08-18T10:31:16;4.23;;;3.93;;
1206;SDS011;593;53.184;8.216;2022-08-18T10:36:47;3.50;;;3.20;;
1206;SDS011;593;53.184;8.216;2022-08-18T10:39:18;4.00;;;3.60;;
1206;SDS011;593;53.184;8.216;2022-08-18T10:42:31;3.63;;;3.33;;
1206;SDS011;593;53.184;8.216;2022-08-18T10:44:36;5.47;;;3.93;;
1206;SDS011;593;53.184;8.216;2022-08-18T10:47:18;4.13;;;3.83;;
1206;SDS011;593;53.184;8.216;2022-08-18T10:49:50;4.13;;;3.70;;
1206;SDS011;593;53.184;8.216;2022-08-18T10:52:29;4.20;;;3.50;;
1206;SDS011;593;53.184;8.216;2022-08-18T11:03:39;3.93;;;3.50;;
1206;SDS011;593;53.184;8.216;2022-08-18T11:06:24;4.53;;;3.87;;
1206;SDS011;593;53.184;8.216;2022-08-18T11:08:52;5.27;;;4.00;;
1206;SDS011;593;53.184;8.216;2022-08-18T11:11:22;4.87;;;4.37;;
1206;SDS011;593;53.184;8.216;2022-08-18T11:16:44;6.37;;;4.33;;
1206;SDS011;593;53.184;8.216;2022-08-18T11:19:17;5.33;;;3.77;;
1206;SDS011;593;53.184;8.216;2022-08-18T11:21:48;9.03;;;4.70;;
1206;SDS011;593;53.184;8.216;2022-08-18T11:24:19;6.23;;;4.43;;
1206;SDS011;593;53.184;8.216;2022-08-18T11:26:54;6.90;;;4.40;;
1206;SDS011;593;53.184;8.216;2022-08-18T11:29:35;26.07;;;10.23;;
1206;SDS011;593;53.184;8.216;2022-08-18T11:34:34;8.03;;;6.00;;
1206;SDS011;593;53.184;8.216;2022-08-18T11:37:04;25.30;;;8.50;;
1206;SDS011;593;53.184;8.216;2022-08-18T11:39:41;9.30;;;6.07;;
1206;SDS011;593;53.184;8.216;2022-08-18T11:42:17;10.03;;;5.27;;
1206;SDS011;593;53.184;8.216;2022-08-18T11:44:50;8.30;;;5.80;;
1206;SDS011;593;53.184;8.216;2022-08-18T11:47:24;5.97;;;4.67;;
1206;SDS011;593;53.184;8.216;2022-08-18T11:50:11;15.23;;;6.60;;
1206;SDS011;593;53.184;8.216;2022-08-18T11:52:48;9.40;;;5.27;;
1206;SDS011;593;53.184;8.216;2022-08-18T11:55:27;10.45;;;5.95;;
1206;SDS011;593;53.184;8.216;2022-08-18T11:57:57;15.85;;;7.65;;
1206;SDS011;593;53.184;8.216;2022-08-18T12:03:26;12.43;;;5.40;;
1206;SDS011;593;53.184;8.216;2022-08-18T12:06:17;7.30;;;5.10;;
1206;SDS011;593;53.184;8.216;2022-08-18T12:08:50;14.50;;;8.43;;
1206;SDS011;593;53.184;8.216;2022-08-18T12:11:19;5.83;;;4.60;;
1206;SDS011;593;53.184;8.216;2022-08-18T12:14:01;7.43;;;4.80;;
1206;SDS011;593;53.184;8.216;2022-08-18T12:16:37;12.75;;;7.20;;
1206;SDS011;593;53.184;8.216;2022-08-18T12:19:10;9.73;;;8.10;;
1206;SDS011;593;53.184;8.216;2022-08-18T12:21:38;7.07;;;6.47;;
1206;SDS011;593;53.184;8.216;2022-08-18T12:24:10;11.38;;;5.10;;
1206;SDS011;593;53.184;8.216;2022-08-18T12:26:46;6.33;;;4.63;;
1206;SDS011;593;53.184;8.216;2022-08-18T12:29:12;6.50;;;4.80;;
1206;SDS011;593;53.184;8.216;2022-08-18T12:31:43;5.47;;;4.60;;
1206;SDS011;593;53.184;8.216;2022-08-18T12:34:32;5.83;;;4.17;;
1206;SDS011;593;53.184;8.216;2022-08-18T12:37:08;11.70;;;5.87;;
1206;SDS011;593;53.184;8.216;2022-08-18T12:39:37;6.78;;;5.68;;
1206;SDS011;593;53.184;8.216;2022-08-18T12:42:02;5.90;;;4.97;;
1206;SDS011;593;53.184;8.216;2022-08-18T12:44:28;5.60;;;4.70;;
1206;SDS011;593;53.184;8.216;2022-08-18T12:46:53;6.27;;;4.87;;
1206;SDS011;593;53.184;8.216;2022-08-18T12:49:22;4.90;;;4.50;;
1206;SDS011;593;53.184;8.216;2022-08-18T12:52:08;5.20;;;4.70;;
1206;SDS011;593;53.184;8.216;2022-08-18T12:54:43;11.83;;;5.60;;
1206;SDS011;593;53.184;8.216;2022-08-18T12:57:22;5.57;;;5.00;;
1206;SDS011;593;53.184;8.216;2022-08-18T13:00:03;5.87;;;4.87;;
1206;SDS011;593;53.184;8.216;2022-08-18T13:02:41;8.13;;;4.60;;
1206;SDS011;593;53.184;8.216;2022-08-18T13:05:08;4.70;;;3.53;;
1206;SDS011;593;53.184;8.216;2022-08-18T13:07:37;5.70;;;4.80;;
1206;SDS011;593;53.184;8.216;2022-08-18T13:10:06;3.80;;;3.50;;
1206;SDS011;593;53.184;8.216;2022-08-18T13:12:32;5.20;;;4.03;;
1206;SDS011;593;53.184;8.216;2022-08-18T13:14:58;5.03;;;4.40;;
1206;SDS011;593;53.184;8.216;2022-08-18T13:17:25;5.33;;;4.10;;
1206;SDS011;593;53.184;8.216;2022-08-18T13:19:51;4.40;;;4.00;;
1206;SDS011;593;53.184;8.216;2022-08-18T13:25:52;5.60;;;4.10;;
1206;SDS011;593;53.184;8.216;2022-08-18T13:28:19;4.30;;;3.83;;
1206;SDS011;593;53.184;8.216;2022-08-18T13:30:48;5.77;;;3.97;;
1206;SDS011;593;53.184;8.216;2022-08-18T13:33:31;4.77;;;4.30;;
1206;SDS011;593;53.184;8.216;2022-08-18T13:36:10;3.97;;;3.67;;
1206;SDS011;593;53.184;8.216;2022-08-18T13:38:37;3.60;;;3.30;;
1206;SDS011;593;53.184;8.216;2022-08-18T13:41:12;4.10;;;3.77;;
1206;SDS011;593;53.184;8.216;2022-08-18T13:43:57;4.20;;;3.70;;
1206;SDS011;593;53.184;8.216;2022-08-18T13:46:23;4.40;;;4.07;;
1206;SDS011;593;53.184;8.216;2022-08-18T13:48:49;4.07;;;3.77;;
1206;SDS011;593;53.184;8.216;2022-08-18T13:51:18;5.43;;;4.00;;
1206;SDS011;593;53.184;8.216;2022-08-18T13:53:50;4.47;;;4.17;;
1206;SDS011;593;53.184;8.216;2022-08-18T13:56:16;5.57;;;4.07;;
1206;SDS011;593;53.184;8.216;2022-08-18T13:58:44;3.60;;;3.40;;
1206;SDS011;593;53.184;8.216;2022-08-18T14:01:11;9.67;;;4.87;;
1206;SDS011;593;53.184;8.216;2022-08-18T14:03:37;5.57;;;4.03;;
1206;SDS011;593;53.184;8.216;2022-08-18T14:06:04;4.77;;;4.37;;
1206;SDS011;593;53.184;8.216;2022-08-18T14:08:31;4.77;;;4.30;;
1206;SDS011;593;53.184;8.216;2022-08-18T14:11:01;6.00;;;5.40;;
1206;SDS011;593;53.184;8.216;2022-08-18T14:13:28;4.20;;;3.80;;
1206;SDS011;593;53.184;8.216;2022-08-18T14:15:55;4.50;;;4.07;;
1206;SDS011;593;53.184;8.216;2022-08-18T14:18:30;4.23;;;3.83;;
1206;SDS011;593;53.184;8.216;2022-08-18T14:21:10;4.40;;;3.63;;
1206;SDS011;593;53.184;8.216;2022-08-18T14:23:54;6.70;;;4.57;;
1206;SDS011;593;53.184;8.216;2022-08-18T14:27:00;3.67;;;3.37;;
1206;SDS011;593;53.184;8.216;2022-08-18T14:29:32;3.57;;;3.27;;
1206;SDS011;593;53.184;8.216;2022-08-18T14:32:03;5.50;;;3.70;;
1206;SDS011;593;53.184;8.216;2022-08-18T14:34:37;6.70;;;5.13;;
1206;SDS011;593;53.184;8.216;2022-08-18T14:37:03;3.43;;;3.13;;
1206;SDS011;593;53.184;8.216;2022-08-18T14:39:29;6.60;;;4.20;;
1206;SDS011;593;53.184;8.216;2022-08-18T14:42:06;6.10;;;4.27;;
1206;SDS011;593;53.184;8.216;2022-08-18T14:44:38;6.00;;;3.80;;
1206;SDS011;593;53.184;8.216;2022-08-18T14:47:05;4.63;;;3.90;;
1206;SDS011;593;53.184;8.216;2022-08-18T14:49:32;3.37;;;3.10;;
1206;SDS011;593;53.184;8.216;2022-08-18T14:52:01;5.47;;;3.70;;
1206;SDS011;593;53.184;8.216;2022-08-18T14:54:29;4.57;;;3.40;;
1206;SDS011;593;53.184;8.216;2022-08-18T14:56:55;6.77;;;3.57;;
1206;SDS011;593;53.184;8.216;2022-08-18T14:59:22;3.37;;;3.10;;
1206;SDS011;593;53.184;8.216;2022-08-18T15:01:52;5.07;;;2.90;;
1206;SDS011;593;53.184;8.216;2022-08-18T15:04:18;3.80;;;3.10;;
1206;SDS011;593;53.184;8.216;2022-08-18T15:06:44;7.90;;;3.37;;
1206;SDS011;593;53.184;8.216;2022-08-18T15:09:09;4.17;;;3.10;;
1206;SDS011;593;53.184;8.216;2022-08-18T15:11:36;6.53;;;3.03;;
1206;SDS011;593;53.184;8.216;2022-08-18T15:14:12;4.20;;;2.77;;
1206;SDS011;593;53.184;8.216;2022-08-18T15:16:45;4.43;;;2.93;;
1206;SDS011;593;53.184;8.216;2022-08-18T15:19:17;6.50;;;3.20;;
1206;SDS011;593;53.184;8.216;2022-08-18T15:22:14;4.33;;;2.70;;
1206;SDS011;593;53.184;8.216;2022-08-18T15:25:25;3.70;;;2.60;;
1206;SDS011;593;53.184;8.216;2022-08-18T15:28:16;3.80;;;2.50;;
1206;SDS011;593;53.184;8.216;2022-08-18T15:30:44;3.50;;;2.47;;
1206;SDS011;593;53.184;8.216;2022-08-18T15:33:19;5.70;;;2.53;;
1206;SDS011;593;53.184;8.216;2022-08-18T15:35:48;2.97;;;2.77;;
1206;SDS011;593;53.184;8.216;2022-08-18T15:38:18;4.53;;;2.40;;
1206;SDS011;593;53.184;8.216;2022-08-18T15:40:52;3.20;;;2.40;;
1206;SDS011;593;53.184;8.216;2022-08-18T15:43:24;3.00;;;2.50;;
1206;SDS011;593;53.184;8.216;2022-08-18T15:45:52;3.13;;;2.93;;
1206;SDS011;593;53.184;8.216;2022-08-18T15:48:28;2.93;;;2.63;;
1206;SDS011;593;53.184;8.216;2022-08-18T15:51:00;4.23;;;2.40;;
1206;SDS011;593;53.184;8.216;2022-08-18T15:53:32;3.20;;;2.57;;
1206;SDS011;593;53.184;8.216;2022-08-18T15:56:03;3.13;;;2.63;;
1206;SDS011;593;53.184;8.216;2022-08-18T15:58:31;2.83;;;2.53;;
1206;SDS011;593;53.184;8.216;2022-08-18T16:01:01;2.47;;;2.27;;
1206;SDS011;593;53.184;8.216;2022-08-18T16:03:40;2.77;;;2.50;;
1206;SDS011;593;53.184;8.216;2022-08-18T16:06:23;3.23;;;2.40;;
1206;SDS011;593;53.184;8.216;2022-08-18T16:08:55;2.63;;;2.20;;
1206;SDS011;593;53.184;8.216;2022-08-18T16:11:21;2.70;;;2.40;;
1206;SDS011;593;53.184;8.216;2022-08-18T16:13:51;4.30;;;2.20;;
1206;SDS011;593;53.184;8.216;2022-08-18T16:16:21;2.40;;;2.20;;
1206;SDS011;593;53.184;8.216;2022-08-18T16:18:48;3.43;;;2.30;;
1206;SDS011;593;53.184;8.216;2022-08-18T16:21:15;3.37;;;2.33;;
1206;SDS011;593;53.184;8.216;2022-08-18T16:23:47;4.50;;;2.10;;
1206;SDS011;593;53.184;8.216;2022-08-18T16:26:15;2.53;;;2.40;;
1206;SDS011;593;53.184;8.216;2022-08-18T16:28:43;2.10;;;2.00;;
1206;SDS011;593;53.184;8.216;2022-08-18T16:34:07;7.43;;;2.23;;
1206;SDS011;593;53.184;8.216;2022-08-18T16:36:37;2.67;;;1.70;;
1206;SDS011;593;53.184;8.216;2022-08-18T16:39:03;2.10;;;1.57;;
1206;SDS011;593;53.184;8.216;2022-08-18T16:41:29;2.13;;;1.87;;
1206;SDS011;593;53.184;8.216;2022-08-18T16:43:55;1.50;;;1.40;;
1206;SDS011;593;53.184;8.216;2022-08-18T16:46:22;1.93;;;1.83;;
1206;SDS011;593;53.184;8.216;2022-08-18T16:48:52;1.93;;;1.40;;
1206;SDS011;593;53.184;8.216;2022-08-18T16:51:20;2.13;;;1.60;;
1206;SDS011;593;53.184;8.216;2022-08-18T16:53:51;2.03;;;1.60;;
1206;SDS011;593;53.184;8.216;2022-08-18T16:56:23;1.50;;;1.40;;
1206;SDS011;593;53.184;8.216;2022-08-18T16:59:01;2.67;;;1.67;;
1206;SDS011;593;53.184;8.216;2022-08-18T17:01:58;1.90;;;1.77;;
1206;SDS011;593;53.184;8.216;2022-08-18T17:04:44;1.70;;;1.60;;
1206;SDS011;593;53.184;8.216;2022-08-18T17:07:10;1.80;;;1.60;;
1206;SDS011;593;53.184;8.216;2022-08-18T17:09:41;1.93;;;1.83;;
1206;SDS011;593;53.184;8.216;2022-08-18T17:12:48;3.03;;;1.40;;
1206;SDS011;593;53.184;8.216;2022-08-18T17:18:39;1.50;;;1.40;;
1206;SDS011;593;53.184;8.216;2022-08-18T17:21:14;2.17;;;1.67;;
1206;SDS011;593;53.184;8.216;2022-08-18T17:23:58;2.93;;;1.33;;
1206;SDS011;593;53.184;8.216;2022-08-18T17:35:39;2.17;;;1.47;;
1206;SDS011;593;53.184;8.216;2022-08-18T17:40:41;2.73;;;1.80;;
1206;SDS011;593;53.184;8.216;2022-08-18T17:43:16;3.50;;;1.63;;
1206;SDS011;593;53.184;8.216;2022-08-18T17:45:46;1.30;;;1.20;;
1206;SDS011;593;53.184;8.216;2022-08-18T17:48:31;1.47;;;1.37;;
1206;SDS011;593;53.184;8.216;2022-08-18T17:54:12;1.40;;;1.30;;
1206;SDS011;593;53.184;8.216;2022-08-18T17:57:00;1.50;;;1.07;;
1206;SDS011;593;53.184;8.216;2022-08-18T17:59:40;2.23;;;1.70;;
1206;SDS011;593;53.184;8.216;2022-08-18T18:02:12;2.53;;;1.63;;
1206;SDS011;593;53.184;8.216;2022-08-18T18:04:39;1.40;;;1.10;;
1206;SDS011;593;53.184;8.216;2022-08-18T18:09:56;2.07;;;1.83;;
1206;SDS011;593;53.184;8.216;2022-08-18T18:12:33;1.80;;;1.70;;
1206;SDS011;593;53.184;8.216;2022-08-18T18:15:03;1.40;;;1.30;;
1206;SDS011;593;53.184;8.216;2022-08-18T18:17:32;3.80;;;2.00;;
1206;SDS011;593;53.184;8.216;2022-08-18T18:22:41;1.50;;;1.40;;
1206;SDS011;593;53.184;8.216;2022-08-18T18:25:11;2.30;;;2.10;;
1206;SDS011;593;53.184;8.216;2022-08-18T18:27:57;1.27;;;1.17;;
1206;SDS011;593;53.184;8.216;2022-08-18T18:30:24;1.40;;;1.30;;
1206;SDS011;593;53.184;8.216;2022-08-18T18:32:59;1.57;;;1.40;;
1206;SDS011;593;53.184;8.216;2022-08-18T18:38:32;1.50;;;1.40;;
1206;SDS011;593;53.184;8.216;2022-08-18T18:43:40;1.87;;;1.47;;
1206;SDS011;593;53.184;8.216;2022-08-18T18:46:22;1.60;;;1.50;;
1206;SDS011;593;53.184;8.216;2022-08-18T18:55:34;1.67;;;1.57;;
1206;SDS011;593;53.184;8.216;2022-08-18T18:58:19;2.40;;;2.30;;
1206;SDS011;593;53.184;8.216;2022-08-18T19:00:55;1.40;;;1.30;;
1206;SDS011;593;53.184;8.216;2022-08-18T19:03:43;3.37;;;2.00;;
1206;SDS011;593;53.184;8.216;2022-08-18T19:10:05;2.13;;;1.67;;
1206;SDS011;593;53.184;8.216;2022-08-18T19:13:24;2.20;;;1.57;;
1206;SDS011;593;53.184;8.216;2022-08-18T19:40:57;1.83;;;1.70;;
1206;SDS011;593;53.184;8.216;2022-08-18T19:47:32;3.53;;;1.80;;